createdAt,value
2023-01-17T04:48:07.390Z,15.10
2023-01-17T04:51:10.488Z,12.43
2023-01-17T04:54:12.876Z,10.30
2023-01-17T04:57:16.706Z,9.13
2023-01-17T05:00:19.618Z,9.30
2023-01-17T05:03:23.201Z,8.95
2023-01-17T05:06:25.610Z,8.80
2023-01-17T05:09:28.298Z,7.27
2023-01-17T05:12:30.819Z,7.43
2023-01-17T05:15:33.563Z,7.70
2023-01-17T05:18:36.047Z,6.05
2023-01-17T05:21:38.747Z,5.80
2023-01-17T05:24:44.653Z,6.05
2023-01-17T05:27:47.322Z,6.60
2023-01-17T05:30:49.924Z,6.45
2023-01-17T05:33:52.513Z,5.47
2023-01-17T05:36:55.094Z,6.35
2023-01-17T05:39:57.780Z,7.05
2023-01-17T05:43:02.902Z,4.57
2023-01-17T05:46:05.774Z,5.68
2023-01-17T05:49:08.768Z,6.82
2023-01-17T05:52:11.810Z,6.43
2023-01-17T05:55:15.506Z,6.70
2023-01-17T05:58:21.420Z,5.32
2023-01-17T06:01:24.687Z,7.20
2023-01-17T06:04:27.346Z,5.40
2023-01-17T06:07:29.734Z,6.68
2023-01-17T06:10:32.730Z,4.13
2023-01-17T06:13:35.084Z,2.90
2023-01-17T06:16:37.791Z,3.00
2023-01-17T06:19:40.161Z,4.15
2023-01-17T06:22:42.767Z,3.78
2023-01-17T06:25:46.811Z,3.28
2023-01-17T06:28:49.887Z,3.47
2023-01-17T06:31:52.477Z,3.30
2023-01-17T06:34:55.441Z,3.40
2023-01-17T06:37:59.751Z,3.72
2023-01-17T06:41:05.930Z,3.40
2023-01-17T06:44:09.869Z,4.03
2023-01-17T06:47:12.548Z,3.97
2023-01-17T06:50:15.070Z,4.53
2023-01-17T06:53:18.031Z,4.25
2023-01-17T06:56:21.098Z,3.80
2023-01-17T06:59:24.269Z,4.85
2023-01-17T07:02:27.011Z,4.62
2023-01-17T07:05:29.966Z,4.72
2023-01-17T07:08:32.821Z,4.22
2023-01-17T07:11:35.653Z,5.22
2023-01-17T07:14:38.479Z,6.05
2023-01-17T07:17:41.676Z,4.68
2023-01-17T07:20:44.401Z,4.72
2023-01-17T07:23:48.151Z,4.70
2023-01-17T07:26:51.601Z,5.45
2023-01-17T07:29:55.421Z,4.78
2023-01-17T07:32:58.114Z,5.03
2023-01-17T07:36:09.366Z,4.95
2023-01-17T07:39:12.369Z,4.03
2023-01-17T07:42:15.381Z,4.20
2023-01-17T07:45:18.866Z,3.00
2023-01-17T07:51:25.933Z,2.83
2023-01-17T07:54:28.640Z,3.00
2023-01-17T07:57:32.524Z,2.10
2023-01-17T08:00:35.277Z,2.28
2023-01-17T08:03:42.092Z,2.30
2023-01-17T08:06:50.698Z,1.67
2023-01-17T08:09:54.732Z,1.60
2023-01-17T08:12:57.262Z,1.08
2023-01-17T08:16:02.399Z,2.08
2023-01-17T08:19:04.916Z,1.10
2023-01-17T08:22:09.517Z,1.02
2023-01-17T08:25:12.650Z,0.80
2023-01-17T08:28:15.952Z,1.15
2023-01-17T08:31:19.873Z,1.27
2023-01-17T08:34:24.427Z,1.08
2023-01-17T08:37:26.946Z,1.13
2023-01-17T08:40:29.700Z,1.10
2023-01-17T08:43:32.536Z,0.67
2023-01-17T08:46:38.244Z,0.80
2023-01-17T08:49:40.974Z,1.42
2023-01-17T08:52:43.797Z,1.40
2023-01-17T08:55:46.557Z,0.88
2023-01-17T08:58:49.434Z,0.85
2023-01-17T09:01:52.542Z,1.00
2023-01-17T09:04:55.314Z,1.20
2023-01-17T09:07:57.660Z,0.80
2023-01-17T09:11:08.811Z,0.80
2023-01-17T09:14:13.125Z,0.88
2023-01-17T09:17:16.002Z,1.35
2023-01-17T09:20:18.843Z,1.30
2023-01-17T09:23:30.037Z,1.00
2023-01-17T09:26:32.404Z,0.77
2023-01-17T09:29:35.072Z,1.03
2023-01-17T09:32:37.696Z,1.25
2023-01-17T09:35:40.526Z,1.20
2023-01-17T09:38:43.066Z,1.02
2023-01-17T09:41:54.617Z,1.20
2023-01-17T09:44:57.853Z,0.80
2023-01-17T09:48:07.281Z,1.00
2023-01-17T09:51:18.823Z,1.35
2023-01-17T09:54:32.440Z,0.90
2023-01-17T09:57:54.073Z,0.90
2023-01-17T10:01:15.682Z,1.67
2023-01-17T10:04:27.600Z,1.45
2023-01-17T10:07:51.833Z,1.00
2023-01-17T10:11:15.592Z,1.23
2023-01-17T10:14:35.528Z,1.65
2023-01-17T10:18:19.136Z,1.00
2023-01-17T10:21:37.449Z,1.37
2023-01-17T10:24:42.978Z,1.00
2023-01-17T10:27:58.950Z,1.25
2023-01-17T10:31:10.371Z,1.37
2023-01-17T10:34:20.922Z,1.20
2023-01-17T10:37:43.447Z,1.52
2023-01-17T10:40:55.299Z,1.27
2023-01-17T10:44:15.628Z,1.33
2023-01-17T10:47:24.640Z,0.90
2023-01-17T10:50:29.097Z,0.90
2023-01-17T10:54:05.687Z,1.33
2023-01-17T10:57:18.638Z,1.08
2023-01-17T11:00:45.426Z,1.37
2023-01-17T11:03:51.047Z,1.05
2023-01-17T11:07:13.264Z,1.45
2023-01-17T11:10:39.819Z,1.58
2023-01-17T11:13:42.455Z,0.95
2023-01-17T11:16:45.250Z,1.10
2023-01-17T11:19:51.248Z,1.40
2023-01-17T11:23:03.007Z,1.20
2023-01-17T11:26:07.654Z,1.00
2023-01-17T11:29:36.826Z,1.10
2023-01-17T11:32:52.746Z,0.90
2023-01-17T11:35:56.493Z,1.98
2023-01-17T11:39:21.900Z,1.10
2023-01-17T11:43:00.012Z,1.33
2023-01-17T11:46:17.962Z,1.10
2023-01-17T11:49:25.409Z,0.85
2023-01-17T11:52:37.487Z,0.95
2023-01-17T11:55:40.743Z,1.87
2023-01-17T11:58:45.896Z,1.33
2023-01-17T12:02:01.642Z,1.02
2023-01-17T12:05:18.369Z,1.00
2023-01-17T12:08:57.677Z,1.30
2023-01-17T12:12:34.667Z,1.08
2023-01-17T12:15:56.001Z,0.80
2023-01-17T12:19:22.773Z,1.05
2023-01-17T12:22:46.573Z,0.90
2023-01-17T12:25:55.861Z,0.80
2023-01-17T12:29:07.449Z,1.23
2023-01-17T12:32:32.131Z,0.80
2023-01-17T12:38:58.574Z,1.37
2023-01-17T12:42:18.701Z,1.15
2023-01-17T12:45:28.486Z,1.62
2023-01-17T12:48:36.587Z,1.92
2023-01-17T12:51:43.532Z,1.60
2023-01-17T12:54:53.569Z,1.70
2023-01-17T12:58:00.364Z,1.58
2023-01-17T13:01:16.787Z,1.62
2023-01-17T13:04:34.263Z,1.40
2023-01-17T13:07:51.488Z,1.70
2023-01-17T13:11:33.499Z,1.65
2023-01-17T13:14:36.019Z,1.48
2023-01-17T13:17:48.167Z,1.77
2023-01-17T13:21:10.577Z,2.70
2023-01-17T13:24:31.083Z,2.08
2023-01-17T13:27:52.982Z,2.47
2023-01-17T13:31:12.675Z,1.83
2023-01-17T13:34:38.443Z,2.20
2023-01-17T13:37:56.717Z,1.98
2023-01-17T13:41:34.003Z,2.70
2023-01-17T13:44:37.425Z,2.15
2023-01-17T13:47:41.702Z,2.90
2023-01-17T13:50:47.335Z,2.03
2023-01-17T13:53:49.775Z,2.75
2023-01-17T13:57:43.242Z,2.57
2023-01-17T14:00:45.667Z,2.35
2023-01-17T14:03:51.944Z,1.70
2023-01-17T14:06:58.003Z,2.20
2023-01-17T14:10:01.170Z,2.40
2023-01-17T14:13:06.509Z,2.80
2023-01-17T14:16:27.504Z,2.53
2023-01-17T14:19:36.346Z,2.62
2023-01-17T14:23:01.011Z,2.30
2023-01-17T14:29:57.023Z,3.20
2023-01-17T14:33:03.086Z,2.80
2023-01-17T14:36:08.674Z,2.62
2023-01-17T14:39:22.436Z,2.50
2023-01-17T14:42:27.895Z,2.78
2023-01-17T14:45:33.419Z,2.67
2023-01-17T14:48:40.119Z,2.72
2023-01-17T14:51:42.964Z,3.80
2023-01-17T14:54:50.989Z,4.00
2023-01-17T14:57:57.284Z,2.40
2023-01-17T15:01:14.826Z,3.35
2023-01-17T15:04:30.116Z,3.05
2023-01-17T15:07:32.882Z,2.65
2023-01-17T15:10:35.947Z,2.37
2023-01-17T15:13:45.236Z,2.80
2023-01-17T15:16:47.963Z,3.40
2023-01-17T15:19:59.591Z,2.60
2023-01-17T15:23:03.004Z,2.10
2023-01-17T15:26:10.028Z,3.17
2023-01-17T15:29:22.601Z,2.75
2023-01-17T15:32:31.696Z,3.08
2023-01-17T15:35:34.280Z,4.15
2023-01-17T15:38:40.650Z,3.53
2023-01-17T15:41:43.310Z,4.47
2023-01-17T15:44:48.863Z,4.32
2023-01-17T15:47:51.754Z,2.75
2023-01-17T15:50:58.905Z,4.17
2023-01-17T15:54:24.873Z,2.80
2023-01-17T15:57:37.354Z,2.72
2023-01-17T16:00:41.838Z,3.30
2023-01-17T16:03:54.676Z,3.42
2023-01-17T16:07:19.819Z,3.80
2023-01-17T16:10:25.556Z,4.57
2023-01-17T16:13:34.040Z,2.67
2023-01-17T16:16:37.441Z,2.83
2023-01-17T16:19:40.071Z,2.75
2023-01-17T16:22:43.916Z,3.28
2023-01-17T16:25:48.189Z,2.90
2023-01-17T16:28:51.761Z,3.83
2023-01-17T16:31:55.141Z,3.10
2023-01-17T16:34:57.994Z,3.65
2023-01-17T16:38:02.318Z,4.10
2023-01-17T16:41:05.623Z,3.65
2023-01-17T16:44:08.190Z,3.43
2023-01-17T16:47:10.896Z,3.13
